createdAt,value
2019-04-20T00:00:40.227Z,6.60
2019-04-20T00:03:05.806Z,6.97
2019-04-20T00:05:34.965Z,6.43
2019-04-20T00:08:08.981Z,6.23
2019-04-20T00:10:43.427Z,6.30
2019-04-20T00:13:15.949Z,5.83
2019-04-20T00:15:32.333Z,6.13
2019-04-20T00:18:02.187Z,5.97
2019-04-20T00:20:33.998Z,5.83
2019-04-20T00:23:19.887Z,5.93
2019-04-20T00:26:11.067Z,6.23
2019-04-20T00:28:50.771Z,5.93
2019-04-20T00:31:19.019Z,6.17
2019-04-20T00:33:43.581Z,9.33
2019-04-20T00:36:01.157Z,5.80
2019-04-20T00:38:37.617Z,6.23
2019-04-20T00:41:04.696Z,6.20
2019-04-20T00:43:32.954Z,6.00
2019-04-20T00:46:01.623Z,5.67
2019-04-20T00:48:40.425Z,6.00
2019-04-20T00:51:21.249Z,6.53
2019-04-20T00:53:37.245Z,6.43
2019-04-20T00:55:59.161Z,6.00
2019-04-20T00:58:33.397Z,6.43
2019-04-20T01:01:17.119Z,5.90
2019-04-20T01:03:42.316Z,6.23
2019-04-20T01:06:22.226Z,6.63
2019-04-20T01:08:44.475Z,6.23
2019-04-20T01:11:12.372Z,6.50
2019-04-20T01:13:45.957Z,6.30
2019-04-20T01:16:21.725Z,6.47
2019-04-20T01:18:39.409Z,6.87
2019-04-20T01:21:13.868Z,6.10
2019-04-20T01:23:42.923Z,6.67
2019-04-20T01:26:11.547Z,7.13
2019-04-20T01:28:51.115Z,6.80
2019-04-20T01:31:15.747Z,6.60
2019-04-20T01:33:48.451Z,6.63
2019-04-20T01:36:25.441Z,7.80
2019-04-20T01:38:49.351Z,7.20
2019-04-20T01:41:05.419Z,7.27
2019-04-20T01:43:33.286Z,7.37
2019-04-20T01:46:08.194Z,7.20
2019-04-20T01:48:35.312Z,7.00
2019-04-20T01:51:07.297Z,7.07
2019-04-20T01:53:58.579Z,7.23
2019-04-20T01:56:17.172Z,7.93
2019-04-20T01:59:10.512Z,8.20
2019-04-20T02:01:55.627Z,7.77
2019-04-20T02:04:27.938Z,7.90
2019-04-20T02:06:58.165Z,8.10
2019-04-20T02:09:26.362Z,8.30
2019-04-20T02:11:54.118Z,8.57
2019-04-20T02:14:31.989Z,8.70
2019-04-20T02:17:03.495Z,8.97
2019-04-20T02:19:34.657Z,8.90
2019-04-20T02:22:03.844Z,9.23
2019-04-20T02:24:21.708Z,8.87
2019-04-20T02:26:50.594Z,9.60
2019-04-20T02:29:39.861Z,9.30
2019-04-20T02:32:22.487Z,9.80
2019-04-20T02:40:35.898Z,9.73
2019-04-20T02:42:51.043Z,8.87
2019-04-20T02:45:24.061Z,9.57
2019-04-20T02:55:14.566Z,8.93
2019-04-20T02:57:55.557Z,9.40
2019-04-20T03:00:12.480Z,9.13
2019-04-20T03:02:31.392Z,9.13
2019-04-20T03:04:56.200Z,8.77
2019-04-20T03:07:28.155Z,9.93
2019-04-20T03:10:07.532Z,9.60
2019-04-20T03:12:38.793Z,10.17
2019-04-20T03:14:58.587Z,9.00
2019-04-20T03:17:38.732Z,9.47
2019-04-20T03:19:57.369Z,9.30
2019-04-20T03:22:51.301Z,9.10
2019-04-20T03:25:12.403Z,8.87
2019-04-20T03:27:59.562Z,9.60
2019-04-20T03:31:15.678Z,9.80
2019-04-20T03:35:51.523Z,10.07
2019-04-20T03:38:06.091Z,9.00
2019-04-20T03:40:32.434Z,8.33
2019-04-20T03:42:46.443Z,8.97
2019-04-20T03:45:18.388Z,9.17
2019-04-20T03:47:58.782Z,9.77
2019-04-20T03:50:35.605Z,8.80
2019-04-20T03:53:13.958Z,9.17
2019-04-20T03:56:02.580Z,9.23
2019-04-20T03:58:43.478Z,9.10
2019-04-20T04:01:45.928Z,9.00
2019-04-20T04:04:17.916Z,9.00
2019-04-20T04:06:30.666Z,9.47
2019-04-20T04:09:02.718Z,9.20
2019-04-20T04:11:39.143Z,8.83
2019-04-20T04:13:52.502Z,8.67
2019-04-20T04:16:22.104Z,9.70
2019-04-20T04:19:02.799Z,9.30
2019-04-20T04:21:36.963Z,9.47
2019-04-20T04:24:05.886Z,9.80
2019-04-20T04:26:35.298Z,9.30
2019-04-20T04:29:15.202Z,10.07
2019-04-20T04:31:39.007Z,9.23
2019-04-20T04:34:07.923Z,10.07
2019-04-20T04:36:38.728Z,8.70
2019-04-20T04:39:11.182Z,9.03
2019-04-20T04:41:36.478Z,9.67
2019-04-20T04:44:03.514Z,9.30
2019-04-20T04:46:18.586Z,9.73
2019-04-20T04:48:49.481Z,9.27
2019-04-20T04:51:22.974Z,9.87
2019-04-20T04:53:55.130Z,9.50
2019-04-20T04:56:18.911Z,9.43
2019-04-20T04:58:44.904Z,9.30
2019-04-20T05:01:18.357Z,9.73
2019-04-20T05:04:09.844Z,10.00
2019-04-20T05:06:31.687Z,10.00
2019-04-20T05:08:51.248Z,9.67
2019-04-20T05:11:15.258Z,9.10
2019-04-20T05:13:50.882Z,10.20
2019-04-20T05:16:33.868Z,9.67
2019-04-20T05:19:05.043Z,10.07
2019-04-20T05:22:04.008Z,10.23
2019-04-20T05:24:42.427Z,10.60
2019-04-20T05:27:37.519Z,10.50
2019-04-20T05:29:44.834Z,11.07
2019-04-20T05:32:17.025Z,10.57
2019-04-20T05:35:05.095Z,9.93
2019-04-20T05:37:34.385Z,10.10
2019-04-20T05:40:04.695Z,10.37
2019-04-20T05:42:30.877Z,11.00
2019-04-20T05:44:57.132Z,9.77
2019-04-20T05:47:26.691Z,10.53
2019-04-20T05:49:53.827Z,10.67
2019-04-20T05:52:52.175Z,10.27
2019-04-20T05:55:04.401Z,9.77
2019-04-20T05:57:31.927Z,10.57
2019-04-20T06:00:12.672Z,10.60
2019-04-20T06:02:32.169Z,10.27
2019-04-20T06:07:34.194Z,10.27
2019-04-20T06:09:59.979Z,10.67
2019-04-20T06:12:33.081Z,10.03
2019-04-20T06:15:13.238Z,10.27
2019-04-20T06:18:23.183Z,10.80
2019-04-20T06:20:52.409Z,10.67
2019-04-20T06:23:54.878Z,9.43
2019-04-20T06:28:38.828Z,9.10
2019-04-20T06:31:19.136Z,10.00
2019-04-20T06:39:47.485Z,10.10
2019-04-20T06:47:15.701Z,10.40
2019-04-20T06:49:32.943Z,11.17
2019-04-20T06:52:42.265Z,12.30
2019-04-20T06:55:02.786Z,10.90
2019-04-20T06:57:37.270Z,11.77
2019-04-20T07:00:07.436Z,11.90
2019-04-20T07:05:07.104Z,11.50
2019-04-20T07:07:36.048Z,10.77
2019-04-20T07:12:32.959Z,10.97
2019-04-20T07:14:55.610Z,11.33
2019-04-20T07:17:54.728Z,11.27
2019-04-20T07:20:55.518Z,11.23
2019-04-20T07:23:21.991Z,8.93
2019-04-20T07:25:47.847Z,10.38
2019-04-20T07:28:21.854Z,9.30
2019-04-20T07:30:45.920Z,9.00
2019-04-20T07:33:18.652Z,8.40
2019-04-20T07:35:40.062Z,8.30
2019-04-20T07:40:44.192Z,10.10
2019-04-20T07:43:09.301Z,9.30
2019-04-20T07:45:40.154Z,9.53
2019-04-20T07:50:34.651Z,10.23
2019-04-20T07:53:08.930Z,9.33
2019-04-20T07:58:07.649Z,8.35
2019-04-20T08:03:31.056Z,9.25
2019-04-20T08:05:57.315Z,10.08
2019-04-20T08:08:34.821Z,9.93
2019-04-20T08:11:04.937Z,9.15
2019-04-20T08:13:39.109Z,9.08
2019-04-20T08:16:06.369Z,9.45
2019-04-20T08:18:41.260Z,9.63
2019-04-20T08:21:06.390Z,8.65
2019-04-20T08:23:33.556Z,8.15
2019-04-20T08:25:54.356Z,8.48
2019-04-20T08:28:25.237Z,7.78
2019-04-20T08:31:21.713Z,7.37
2019-04-20T08:34:06.431Z,7.20
2019-04-20T08:36:33.503Z,9.38
2019-04-20T08:39:16.570Z,8.33
2019-04-20T08:41:26.057Z,8.08
2019-04-20T08:43:58.683Z,8.45
2019-04-20T08:46:26.525Z,8.25
2019-04-20T08:48:57.112Z,8.03
2019-04-20T08:51:25.936Z,9.28
2019-04-20T08:53:56.378Z,7.80
2019-04-20T08:56:18.478Z,8.25
2019-04-20T08:58:36.244Z,9.13
2019-04-20T09:01:08.300Z,8.90
2019-04-20T09:03:46.254Z,7.95
2019-04-20T09:06:19.355Z,8.35
2019-04-20T09:08:49.300Z,8.60
2019-04-20T09:11:19.693Z,9.50
2019-04-20T09:13:41.402Z,8.48
2019-04-20T09:16:04.314Z,10.08
2019-04-20T09:18:49.384Z,9.43
2019-04-20T09:21:20.012Z,9.15
2019-04-20T09:23:56.100Z,9.23
2019-04-20T09:26:32.811Z,8.98
2019-04-20T09:29:11.115Z,9.03
2019-04-20T09:31:43.702Z,7.37
2019-04-20T09:34:21.968Z,9.05
2019-04-20T09:37:17.902Z,7.97
2019-04-20T09:39:39.308Z,8.93
2019-04-20T09:42:05.995Z,6.53
2019-04-20T09:44:39.848Z,9.20
2019-04-20T09:47:06.465Z,8.60
2019-04-20T09:49:46.097Z,9.25
2019-04-20T09:52:16.968Z,10.20
2019-04-20T09:54:52.823Z,8.78
2019-04-20T09:57:25.331Z,9.25
2019-04-20T09:59:53.760Z,9.35
2019-04-20T10:02:11.241Z,9.90
2019-04-20T10:04:33.998Z,9.43
2019-04-20T10:07:07.693Z,9.68
2019-04-20T10:09:37.296Z,9.18
2019-04-20T10:12:01.713Z,8.45
2019-04-20T10:14:30.902Z,7.87
2019-04-20T10:17:00.049Z,7.72
2019-04-20T10:19:32.486Z,9.03
2019-04-20T10:21:57.762Z,7.20
2019-04-20T10:24:26.508Z,9.08
2019-04-20T10:26:54.639Z,8.60
2019-04-20T10:29:23.730Z,8.50
2019-04-20T10:31:57.431Z,8.20
2019-04-20T10:34:24.023Z,7.05
2019-04-20T10:37:11.504Z,7.75
2019-04-20T10:39:42.681Z,8.65
2019-04-20T10:42:10.465Z,7.22
2019-04-20T10:44:38.893Z,7.40
2019-04-20T10:47:07.248Z,8.23
2019-04-20T10:49:35.362Z,6.83
2019-04-20T10:52:03.081Z,6.00
2019-04-20T10:54:32.250Z,8.20
2019-04-20T10:57:01.411Z,7.53
2019-04-20T10:59:29.773Z,7.10
2019-04-20T11:01:58.114Z,7.50
2019-04-20T11:04:26.323Z,7.35
2019-04-20T11:06:54.500Z,7.20
2019-04-20T11:09:22.746Z,6.33
2019-04-20T11:11:50.569Z,7.55
2019-04-20T11:14:26.594Z,8.45
2019-04-20T11:16:48.544Z,7.20
2019-04-20T11:19:16.366Z,7.35
2019-04-20T11:21:44.203Z,7.75
2019-04-20T11:24:12.285Z,7.22
2019-04-20T11:26:41.765Z,7.12
2019-04-20T11:29:10.558Z,6.55
2019-04-20T11:31:43.207Z,8.00
2019-04-20T11:34:08.377Z,6.30
2019-04-20T11:36:37.072Z,6.78
2019-04-20T11:39:07.415Z,7.33
2019-04-20T11:41:37.049Z,6.70
2019-04-20T11:44:05.556Z,6.10
2019-04-20T11:46:34.547Z,7.12
2019-04-20T11:49:03.564Z,6.90
2019-04-20T11:51:31.785Z,7.22
2019-04-20T11:54:00.565Z,6.10
2019-04-20T11:56:33.480Z,6.72
2019-04-20T11:58:58.891Z,6.58
2019-04-20T12:01:56.533Z,5.78
2019-04-20T12:04:41.369Z,6.37
2019-04-20T12:07:01.282Z,7.60
2019-04-20T12:09:31.414Z,6.08
2019-04-20T12:12:12.257Z,6.62
2019-04-20T12:14:30.384Z,6.30
2019-04-20T12:16:59.517Z,6.40
2019-04-20T12:19:28.949Z,7.05
2019-04-20T12:21:57.957Z,6.40
2019-04-20T12:24:25.750Z,6.92
2019-04-20T12:26:54.577Z,7.05
2019-04-20T12:29:23.761Z,6.35
2019-04-20T12:31:57.396Z,6.40
2019-04-20T12:34:22.295Z,6.85
2019-04-20T12:36:51.159Z,8.08
2019-04-20T12:39:19.321Z,7.47
2019-04-20T12:41:53.632Z,6.80
2019-04-20T12:44:17.540Z,5.85
2019-04-20T12:46:45.831Z,6.08
2019-04-20T12:49:13.777Z,6.30
2019-04-20T12:51:48.484Z,6.45
2019-04-20T12:54:11.214Z,6.85
2019-04-20T12:56:40.380Z,6.33
2019-04-20T12:59:09.506Z,6.20
2019-04-20T13:01:37.481Z,7.20
2019-04-20T13:04:07.429Z,6.87
2019-04-20T13:06:37.368Z,6.90
2019-04-20T13:09:10.631Z,7.47
2019-04-20T13:11:52.756Z,6.92
2019-04-20T13:14:56.232Z,7.03
2019-04-20T13:17:24.153Z,7.58
2019-04-20T13:19:53.270Z,7.55
2019-04-20T13:22:21.207Z,6.40
2019-04-20T13:24:49.352Z,7.92
2019-04-20T13:27:17.512Z,7.58
2019-04-20T13:29:49.176Z,7.12
2019-04-20T13:32:16.139Z,7.20
2019-04-20T13:34:44.514Z,7.25
2019-04-20T13:37:12.326Z,6.95
2019-04-20T13:39:40.735Z,7.78
2019-04-20T13:42:14.047Z,7.70
2019-04-20T13:44:39.032Z,7.83
2019-04-20T13:47:07.241Z,7.65
2019-04-20T13:49:36.720Z,7.92
2019-04-20T13:52:04.692Z,7.72
2019-04-20T13:54:32.517Z,8.48
2019-04-20T13:57:01.905Z,8.20
2019-04-20T13:59:35.185Z,7.72
2019-04-20T14:02:26.751Z,7.87
2019-04-20T14:04:59.003Z,8.05
2019-04-20T14:07:29.303Z,8.30
2019-04-20T14:09:57.448Z,7.87
2019-04-20T14:12:32.480Z,8.10
2019-04-20T14:14:55.299Z,8.08
2019-04-20T14:17:23.479Z,8.80
2019-04-20T14:19:51.322Z,8.15
2019-04-20T14:22:19.083Z,8.60
2019-04-20T14:24:46.895Z,8.73
2019-04-20T14:27:14.979Z,9.63
2019-04-20T14:29:43.228Z,9.35
2019-04-20T14:32:12.022Z,8.75
2019-04-20T14:34:40.822Z,8.83
2019-04-20T14:37:08.869Z,9.68
2019-04-20T14:39:36.596Z,9.73
2019-04-20T14:42:04.604Z,9.48
2019-04-20T14:44:32.407Z,9.23
2019-04-20T14:47:00.169Z,8.93
2019-04-20T14:49:28.506Z,9.30
2019-04-20T14:51:58.097Z,9.27
2019-04-20T14:54:25.995Z,8.83
2019-04-20T14:56:55.921Z,9.50
2019-04-20T14:59:43.474Z,9.50
2019-04-20T15:02:17.393Z,8.43
2019-04-20T15:04:45.711Z,9.80
2019-04-20T15:07:14.908Z,9.07
2019-04-20T15:09:43.008Z,9.33
2019-04-20T15:12:11.005Z,9.13
2019-04-20T15:14:38.846Z,9.83
2019-04-20T15:17:08.942Z,9.47
2019-04-20T15:19:51.629Z,9.70
2019-04-20T15:22:29.571Z,9.27
2019-04-20T15:24:57.689Z,8.53
2019-04-20T15:27:25.526Z,9.57
2019-04-20T15:29:54.032Z,8.53
2019-04-20T15:32:22.916Z,8.93
2019-04-20T15:34:50.982Z,8.73
2019-04-20T15:37:20.289Z,9.43
2019-04-20T15:39:48.126Z,9.27
2019-04-20T15:42:17.078Z,9.10
2019-04-20T15:44:45.169Z,8.93
2019-04-20T15:47:13.261Z,9.03
2019-04-20T15:49:41.992Z,9.20
2019-04-20T15:52:12.533Z,9.23
2019-04-20T15:54:39.688Z,8.97
2019-04-20T15:57:12.752Z,9.47
2019-04-20T15:59:38.248Z,8.87
2019-04-20T16:02:13.571Z,9.53
2019-04-20T16:04:50.669Z,9.63
2019-04-20T16:07:19.218Z,9.17
2019-04-20T16:09:48.363Z,8.70
2019-04-20T16:12:17.023Z,8.70
2019-04-20T16:14:46.050Z,9.73
2019-04-20T16:17:15.065Z,8.80
2019-04-20T16:19:51.277Z,8.93
2019-04-20T16:22:12.800Z,8.20
2019-04-20T16:24:45.300Z,7.87
2019-04-20T16:27:15.746Z,9.33
2019-04-20T16:29:43.943Z,9.30
2019-04-20T16:32:12.268Z,9.00
2019-04-20T16:34:40.378Z,9.00
2019-04-20T16:37:08.616Z,8.47
2019-04-20T16:39:36.768Z,8.23
2019-04-20T16:42:06.536Z,9.30
2019-04-20T16:44:38.715Z,8.47
2019-04-20T16:47:07.973Z,8.70
2019-04-20T16:49:36.880Z,7.93
2019-04-20T16:52:05.207Z,7.87
2019-04-20T16:54:33.089Z,8.80
2019-04-20T16:57:00.998Z,8.53
2019-04-20T16:59:33.613Z,8.53
2019-04-20T17:01:58.541Z,8.90
2019-04-20T17:04:26.943Z,8.90
2019-04-20T17:07:14.309Z,8.17
2019-04-20T17:09:42.365Z,8.23
2019-04-20T17:12:10.444Z,8.23
2019-04-20T17:14:38.280Z,7.73
2019-04-20T17:17:07.299Z,8.37
2019-04-20T17:19:35.512Z,7.73
2019-04-20T17:22:03.691Z,8.73
2019-04-20T17:24:31.423Z,8.27
2019-04-20T17:27:17.028Z,8.30
2019-04-20T17:30:05.117Z,8.20
2019-04-20T17:32:33.719Z,8.63
2019-04-20T17:35:15.758Z,8.60
2019-04-20T17:37:37.670Z,9.10
2019-04-20T17:40:23.294Z,8.87
2019-04-20T17:42:45.061Z,8.30
2019-04-20T17:45:08.845Z,8.00
2019-04-20T17:47:52.570Z,8.47
2019-04-20T17:50:22.100Z,8.50
2019-04-20T17:52:52.360Z,8.23
2019-04-20T17:55:17.597Z,7.60
2019-04-20T17:57:35.232Z,7.43
2019-04-20T18:00:15.318Z,7.20
2019-04-20T18:03:06.031Z,6.43
2019-04-20T18:05:39.301Z,7.77
2019-04-20T18:08:19.363Z,6.90
2019-04-20T18:10:35.341Z,6.87
2019-04-20T18:12:53.936Z,6.83
2019-04-20T18:15:37.787Z,7.47
2019-04-20T18:18:41.636Z,7.77
2019-04-20T18:20:59.104Z,7.03
2019-04-20T18:23:33.727Z,6.80
2019-04-20T18:26:17.155Z,7.57
2019-04-20T18:28:54.399Z,6.67
2019-04-20T18:31:11.193Z,7.47
2019-04-20T18:33:40.445Z,7.47
2019-04-20T18:36:08.453Z,7.07
2019-04-20T18:38:43.593Z,7.10
2019-04-20T18:41:08.900Z,7.63
2019-04-20T18:43:43.954Z,7.47
2019-04-20T18:46:21.735Z,7.17
2019-04-20T18:48:55.576Z,7.53
2019-04-20T18:51:05.841Z,8.20
2019-04-20T18:53:40.755Z,8.07
2019-04-20T18:56:04.724Z,9.27
2019-04-20T18:58:33.674Z,8.80
2019-04-20T19:01:01.518Z,9.43
2019-04-20T19:03:33.690Z,9.47
2019-04-20T19:06:00.187Z,9.30
2019-04-20T19:08:33.796Z,10.50
2019-04-20T19:11:04.106Z,10.40
2019-04-20T19:13:36.754Z,10.43
2019-04-20T19:16:21.211Z,11.13
2019-04-20T19:19:03.928Z,11.53
2019-04-20T19:21:22.859Z,12.13
2019-04-20T19:23:59.946Z,11.27
2019-04-20T19:26:22.877Z,11.40
2019-04-20T19:28:54.807Z,11.73
2019-04-20T19:31:39.351Z,12.00
2019-04-20T19:34:13.003Z,12.90
2019-04-20T19:36:33.397Z,12.30
2019-04-20T19:39:08.589Z,12.73
2019-04-20T19:41:31.943Z,12.87
2019-04-20T19:44:04.099Z,12.57
2019-04-20T19:46:53.758Z,12.83
2019-04-20T19:49:02.910Z,14.07
2019-04-20T19:51:47.987Z,15.10
2019-04-20T19:54:13.135Z,15.33
2019-04-20T19:56:38.143Z,16.00
2019-04-20T19:59:05.146Z,16.57
2019-04-20T20:01:24.563Z,15.60
2019-04-20T20:03:56.553Z,14.03
2019-04-20T20:06:29.091Z,15.00
2019-04-20T20:08:57.416Z,13.90
2019-04-20T20:11:28.179Z,14.93
2019-04-20T20:13:53.869Z,14.73
2019-04-20T20:16:30.292Z,13.57
2019-04-20T20:19:05.851Z,13.03
2019-04-20T20:21:35.993Z,13.40
2019-04-20T20:23:54.150Z,13.70
2019-04-20T20:26:29.150Z,13.83
2019-04-20T20:29:05.773Z,14.13
2019-04-20T20:31:33.653Z,13.80
2019-04-20T20:34:03.010Z,14.13
2019-04-20T20:36:24.843Z,14.43
2019-04-20T20:39:02.914Z,13.40
2019-04-20T20:41:29.988Z,14.00
2019-04-20T20:44:03.126Z,13.70
2019-04-20T20:46:32.519Z,13.53
2019-04-20T20:49:09.604Z,12.67
2019-04-20T20:52:01.065Z,12.33
2019-04-20T20:54:04.529Z,12.40
2019-04-20T20:56:29.047Z,12.70
2019-04-20T20:59:04.142Z,11.63
2019-04-20T21:01:26.491Z,12.53
2019-04-20T21:03:54.753Z,10.90
2019-04-20T21:06:24.438Z,11.30
2019-04-20T21:08:55.807Z,11.07
2019-04-20T21:11:27.515Z,11.10
2019-04-20T21:13:53.781Z,11.63
2019-04-20T21:16:26.656Z,10.80
2019-04-20T21:19:12.046Z,10.03
2019-04-20T21:21:38.836Z,10.53
2019-04-20T21:24:05.130Z,9.97
2019-04-20T21:26:33.180Z,9.37
2019-04-20T21:28:57.528Z,10.43
2019-04-20T21:31:27.867Z,10.90
2019-04-20T21:33:57.207Z,10.43
2019-04-20T21:36:29.326Z,10.43
2019-04-20T21:38:55.909Z,11.00
2019-04-20T21:41:25.633Z,10.10
2019-04-20T21:43:53.994Z,10.43
2019-04-20T21:46:22.841Z,10.40
2019-04-20T21:49:08.231Z,10.80
2019-04-20T21:51:32.151Z,10.67
2019-04-20T21:53:56.174Z,10.63
2019-04-20T21:56:23.833Z,10.00
2019-04-20T21:58:59.870Z,10.50
2019-04-20T22:01:30.412Z,10.43
2019-04-20T22:03:54.347Z,10.43
2019-04-20T22:06:22.520Z,10.87
2019-04-20T22:08:59.852Z,10.90
2019-04-20T22:11:22.044Z,10.50
2019-04-20T22:13:51.239Z,10.80
2019-04-20T22:16:20.779Z,10.80
2019-04-20T22:18:58.174Z,11.20
2019-04-20T22:21:28.405Z,11.20
2019-04-20T22:24:05.717Z,11.13
2019-04-20T22:26:30.064Z,11.73
2019-04-20T22:28:48.214Z,10.60
2019-04-20T22:31:16.065Z,10.10
2019-04-20T22:33:45.437Z,10.33
2019-04-20T22:36:14.554Z,10.67
2019-04-20T22:39:07.399Z,10.23
2019-04-20T22:42:01.165Z,9.70
2019-04-20T22:44:28.303Z,9.73
2019-04-20T22:46:56.288Z,9.63
2019-04-20T22:49:43.130Z,9.60
2019-04-20T22:52:04.132Z,10.50
2019-04-20T22:54:39.426Z,10.37
2019-04-20T22:57:03.117Z,9.73
2019-04-20T22:59:36.699Z,9.40
2019-04-20T23:01:58.220Z,8.90
2019-04-20T23:04:22.645Z,9.43
2019-04-20T23:06:51.987Z,9.73
2019-04-20T23:09:20.626Z,9.43
2019-04-20T23:11:49.485Z,9.87
2019-04-20T23:14:18.263Z,9.90
2019-04-20T23:16:50.581Z,9.70
2019-04-20T23:19:28.987Z,10.27
2019-04-20T23:21:48.524Z,10.13
2019-04-20T23:24:16.708Z,10.50
2019-04-20T23:26:47.175Z,9.63
2019-04-20T23:29:15.374Z,9.73
2019-04-20T23:31:48.421Z,10.33
2019-04-20T23:34:16.110Z,10.57
2019-04-20T23:36:47.110Z,10.87
2019-04-20T23:39:13.030Z,10.63
2019-04-20T23:41:42.562Z,11.03
2019-04-20T23:44:19.135Z,10.70
2019-04-20T23:47:08.607Z,10.57
2019-04-20T23:49:54.171Z,10.97
2019-04-20T23:52:32.594Z,11.20
2019-04-20T23:54:38.634Z,10.97
2019-04-20T23:57:06.041Z,10.23
2019-04-20T23:59:39.583Z,10.53
